createdAt,value
2019-04-26T00:02:09.877Z,14.55
2019-04-26T00:04:38.540Z,14.78
2019-04-26T00:07:06.951Z,14.65
2019-04-26T00:09:38.256Z,14.70
2019-04-26T00:12:08.070Z,14.80
2019-04-26T00:14:37.985Z,14.80
2019-04-26T00:20:23.236Z,13.83
2019-04-26T00:26:08.109Z,14.18
2019-04-26T00:28:36.298Z,16.23
2019-04-26T00:34:21.672Z,14.07
2019-04-26T00:40:07.116Z,14.10
2019-04-26T00:42:35.505Z,14.73
2019-04-26T00:48:21.383Z,13.47
2019-04-26T00:54:05.701Z,13.00
2019-04-26T00:56:34.360Z,12.63
2019-04-26T01:02:20.859Z,14.00
2019-04-26T01:08:05.623Z,12.57
2019-04-26T01:10:33.818Z,12.60
2019-04-26T01:13:01.931Z,13.27
2019-04-26T01:18:46.807Z,9.60
2019-04-26T01:24:32.994Z,13.63
2019-04-26T01:29:55.277Z,13.07
2019-04-26T01:35:40.091Z,13.07
2019-04-26T01:41:37.973Z,12.70
2019-04-26T01:47:24.139Z,13.20
2019-04-26T01:53:08.543Z,13.33
2019-04-26T01:58:52.679Z,12.77
2019-04-26T02:04:39.452Z,14.63
2019-04-26T02:07:07.841Z,13.80
2019-04-26T02:12:51.983Z,14.53
2019-04-26T02:18:36.885Z,15.83
2019-04-26T02:24:24.821Z,14.47
2019-04-26T02:30:09.549Z,12.90
2019-04-26T02:35:54.809Z,15.63
2019-04-26T02:41:39.740Z,15.23
2019-04-26T02:44:09.600Z,12.53
2019-04-26T02:49:56.413Z,15.30
2019-04-26T02:52:27.878Z,16.60
2019-04-26T02:58:12.398Z,17.00
2019-04-26T03:03:56.947Z,19.13
2019-04-26T03:09:44.350Z,18.17
2019-04-26T03:15:32.057Z,20.37
2019-04-26T03:21:32.699Z,19.23
2019-04-26T03:24:02.403Z,19.90
2019-04-26T03:29:48.580Z,22.20
2019-04-26T03:35:41.277Z,24.23
2019-04-26T03:38:10.670Z,19.47
2019-04-26T03:43:56.738Z,19.77
2019-04-26T03:49:30.390Z,17.50
2019-04-26T03:55:16.482Z,18.60
2019-04-26T04:01:04.476Z,18.20
2019-04-26T04:03:39.313Z,17.80
2019-04-26T04:09:23.639Z,18.10
2019-04-26T04:15:10.010Z,18.20
2019-04-26T04:17:45.069Z,20.60
2019-04-26T04:20:14.430Z,17.05
2019-04-26T04:25:59.792Z,18.35
2019-04-26T04:28:29.694Z,17.57
2019-04-26T04:30:59.522Z,18.27
2019-04-26T04:33:29.202Z,18.42
2019-04-26T04:35:59.088Z,17.85
2019-04-26T04:38:30.563Z,18.45
2019-04-26T04:41:01.915Z,16.95
2019-04-26T04:43:33.303Z,17.30
2019-04-26T04:46:02.946Z,19.37
2019-04-26T04:48:34.359Z,17.50
2019-04-26T04:51:02.342Z,18.05
2019-04-26T04:53:30.401Z,18.55
2019-04-26T04:56:00.849Z,19.65
2019-04-26T04:58:30.649Z,18.02
2019-04-26T05:01:02.056Z,17.48
2019-04-26T05:03:33.583Z,21.17
2019-04-26T05:06:07.524Z,18.40
2019-04-26T05:08:37.619Z,19.45
2019-04-26T05:11:07.873Z,17.73
2019-04-26T05:13:37.741Z,19.23
2019-04-26T05:16:09.194Z,20.55
2019-04-26T05:18:39.009Z,19.80
2019-04-26T05:21:08.918Z,19.92
2019-04-26T05:23:38.799Z,19.48
2019-04-26T05:26:08.261Z,18.82
2019-04-26T05:28:39.798Z,18.82
2019-04-26T05:31:09.234Z,19.42
2019-04-26T05:33:39.656Z,18.80
2019-04-26T05:36:11.080Z,18.05
2019-04-26T05:38:38.986Z,18.20
2019-04-26T05:41:08.853Z,19.00
2019-04-26T05:43:40.375Z,18.82
2019-04-26T05:46:11.741Z,19.45
2019-04-26T05:48:43.187Z,17.85
2019-04-26T05:51:14.554Z,17.40
2019-04-26T05:53:45.881Z,18.02
2019-04-26T05:56:17.271Z,17.98
2019-04-26T05:58:47.194Z,17.95
2019-04-26T06:01:18.635Z,19.73
2019-04-26T06:03:50.861Z,17.95
2019-04-26T06:06:22.529Z,21.10
2019-04-26T06:08:53.927Z,20.37
2019-04-26T06:11:25.326Z,18.98
2019-04-26T06:13:57.751Z,18.10
2019-04-26T06:16:29.233Z,17.45
2019-04-26T06:19:01.678Z,19.40
2019-04-26T06:21:31.731Z,21.50
2019-04-26T06:24:03.077Z,16.32
2019-04-26T06:26:32.753Z,20.77
2019-04-26T06:29:03.308Z,15.60
2019-04-26T06:31:33.235Z,18.02
2019-04-26T06:34:03.167Z,18.57
2019-04-26T06:36:34.530Z,21.45
2019-04-26T06:39:09.293Z,16.35
2019-04-26T06:41:41.811Z,24.05
2019-04-26T06:44:13.221Z,16.48
2019-04-26T06:46:47.372Z,21.00
2019-04-26T06:49:17.732Z,17.82
2019-04-26T06:51:47.545Z,20.75
2019-04-26T06:54:18.790Z,16.05
2019-04-26T06:56:50.113Z,17.15
2019-04-26T06:59:19.919Z,15.63
2019-04-26T07:01:49.661Z,18.25
2019-04-26T07:04:19.801Z,16.17
2019-04-26T07:06:49.561Z,15.40
2019-04-26T07:09:18.909Z,15.58
2019-04-26T07:11:50.391Z,16.25
2019-04-26T07:14:20.169Z,14.60
2019-04-26T07:16:49.881Z,15.95
2019-04-26T07:19:19.690Z,13.03
2019-04-26T07:21:51.043Z,14.40
2019-04-26T07:24:22.389Z,11.88
2019-04-26T07:26:52.258Z,14.65
2019-04-26T07:29:25.042Z,14.35
2019-04-26T07:31:55.209Z,14.23
2019-04-26T07:34:26.675Z,12.70
2019-04-26T07:36:56.499Z,13.83
2019-04-26T07:39:29.073Z,13.68
2019-04-26T07:41:58.021Z,15.68
2019-04-26T07:44:29.409Z,13.58
2019-04-26T07:46:59.309Z,13.85
2019-04-26T07:49:31.069Z,13.00
2019-04-26T07:52:02.904Z,13.30
2019-04-26T07:54:32.821Z,12.40
2019-04-26T07:57:03.209Z,12.30
2019-04-26T07:59:33.213Z,10.78
2019-04-26T08:02:05.091Z,15.00
2019-04-26T08:04:35.766Z,11.68
2019-04-26T08:07:06.334Z,11.38
2019-04-26T08:09:36.927Z,11.48
2019-04-26T08:12:07.947Z,11.18
2019-04-26T08:14:40.813Z,11.88
2019-04-26T08:17:12.552Z,11.40
2019-04-26T08:19:42.433Z,10.95
2019-04-26T08:22:20.433Z,12.10
2019-04-26T08:24:44.165Z,11.25
2019-04-26T08:27:22.544Z,12.95
2019-04-26T08:29:45.489Z,12.33
2019-04-26T08:32:16.806Z,11.65
2019-04-26T08:34:46.738Z,12.10
2019-04-26T08:37:19.302Z,11.40
2019-04-26T08:39:51.691Z,12.33
2019-04-26T08:42:23.861Z,9.93
2019-04-26T08:44:52.701Z,11.33
2019-04-26T08:47:26.129Z,11.38
2019-04-26T08:49:54.629Z,10.68
2019-04-26T08:52:25.869Z,11.15
2019-04-26T08:54:56.291Z,10.20
2019-04-26T08:57:26.311Z,10.15
2019-04-26T08:59:56.241Z,11.88
2019-04-26T09:02:27.687Z,10.80
2019-04-26T09:04:59.001Z,10.53
2019-04-26T09:07:30.712Z,9.78
2019-04-26T09:10:01.551Z,10.40
2019-04-26T09:12:33.304Z,10.50
2019-04-26T09:15:03.356Z,11.05
2019-04-26T09:17:33.760Z,10.28
2019-04-26T09:20:07.181Z,11.65
2019-04-26T09:22:34.281Z,10.28
2019-04-26T09:25:04.309Z,9.73
2019-04-26T09:27:34.530Z,10.13
2019-04-26T09:30:06.320Z,11.38
2019-04-26T09:32:36.808Z,10.13
2019-04-26T09:35:06.219Z,9.73
2019-04-26T09:37:34.489Z,8.88
2019-04-26T09:40:10.198Z,10.63
2019-04-26T09:42:39.470Z,10.32
2019-04-26T09:45:08.993Z,9.95
2019-04-26T09:47:39.022Z,10.50
2019-04-26T09:50:11.355Z,9.15
2019-04-26T09:52:41.948Z,9.10
2019-04-26T09:55:10.358Z,9.88
2019-04-26T09:57:38.616Z,9.43
2019-04-26T10:00:10.305Z,9.43
2019-04-26T10:02:40.398Z,8.85
2019-04-26T10:05:12.046Z,7.62
2019-04-26T10:07:39.388Z,8.05
2019-04-26T10:10:22.140Z,8.98
2019-04-26T10:12:41.051Z,8.28
2019-04-26T10:15:11.207Z,8.78
2019-04-26T10:17:39.584Z,7.55
2019-04-26T10:20:07.895Z,6.62
2019-04-26T10:22:37.853Z,6.85
2019-04-26T10:25:08.079Z,7.05
2019-04-26T10:27:40.842Z,6.20
2019-04-26T10:30:09.451Z,6.05
2019-04-26T10:32:38.055Z,6.03
2019-04-26T10:35:06.621Z,6.47
2019-04-26T10:37:39.759Z,5.92
2019-04-26T10:40:06.467Z,5.33
2019-04-26T10:42:34.743Z,5.40
2019-04-26T10:45:03.661Z,7.00
2019-04-26T10:47:34.357Z,6.17
2019-04-26T10:50:02.150Z,6.75
2019-04-26T10:52:30.308Z,5.60
2019-04-26T10:55:00.103Z,5.87
2019-04-26T10:57:30.114Z,6.22
2019-04-26T11:00:01.089Z,5.45
2019-04-26T11:02:29.429Z,4.72
2019-04-26T11:04:57.962Z,5.22
2019-04-26T11:07:26.449Z,5.42
2019-04-26T11:09:55.155Z,4.70
2019-04-26T11:12:23.554Z,5.08
2019-04-26T11:14:53.338Z,5.65
2019-04-26T11:17:21.918Z,6.00
2019-04-26T11:19:50.395Z,5.28
2019-04-26T11:22:28.588Z,5.03
2019-04-26T11:24:50.100Z,5.17
2019-04-26T11:27:18.734Z,4.37
2019-04-26T11:29:53.579Z,4.85
2019-04-26T11:32:16.979Z,4.50
2019-04-26T11:34:45.521Z,4.42
2019-04-26T11:37:17.792Z,4.03
2019-04-26T11:39:43.770Z,3.62
2019-04-26T11:42:13.224Z,4.22
2019-04-26T11:44:44.377Z,3.98
2019-04-26T11:47:11.538Z,4.15
2019-04-26T11:49:41.589Z,3.85
2019-04-26T11:52:10.069Z,4.50
2019-04-26T11:54:38.438Z,3.77
2019-04-26T11:57:08.248Z,3.65
2019-04-26T11:59:36.794Z,3.95
2019-04-26T12:02:05.109Z,3.83
2019-04-26T12:04:35.066Z,4.45
2019-04-26T12:07:05.001Z,3.40
2019-04-26T12:09:34.953Z,3.47
2019-04-26T12:12:04.816Z,3.35
2019-04-26T12:14:34.364Z,3.83
2019-04-26T12:17:03.998Z,3.02
2019-04-26T12:19:32.646Z,3.47
2019-04-26T12:22:04.187Z,2.37
2019-04-26T12:24:34.395Z,3.15
2019-04-26T12:27:01.027Z,2.98
2019-04-26T12:29:29.518Z,3.15
2019-04-26T12:35:26.021Z,2.50
2019-04-26T12:37:55.727Z,2.72
2019-04-26T12:40:24.127Z,3.95
2019-04-26T12:42:53.750Z,4.03
2019-04-26T12:45:23.759Z,4.03
2019-04-26T12:47:53.690Z,4.53
2019-04-26T12:50:21.981Z,5.28
2019-04-26T12:56:18.671Z,4.25
2019-04-26T13:02:11.135Z,3.00
2019-04-26T13:07:55.659Z,5.15
2019-04-26T13:13:42.379Z,5.37
2019-04-26T13:19:16.126Z,6.75
2019-04-26T13:25:01.478Z,6.20
2019-04-26T13:30:45.883Z,7.47
2019-04-26T13:36:30.664Z,7.50
2019-04-26T13:42:17.402Z,6.55
2019-04-26T13:48:02.374Z,9.58
2019-04-26T13:53:46.868Z,6.20
2019-04-26T13:59:32.623Z,6.62
2019-04-26T14:05:17.501Z,6.92
2019-04-26T14:11:01.991Z,6.50
2019-04-26T14:13:30.332Z,6.33
2019-04-26T14:15:58.601Z,7.12
2019-04-26T14:21:33.192Z,8.03
2019-04-26T14:27:19.022Z,6.85
2019-04-26T14:33:03.539Z,6.70
2019-04-26T14:35:31.920Z,7.20
2019-04-26T14:38:01.618Z,8.55
2019-04-26T14:40:30.190Z,7.20
2019-04-26T14:43:06.706Z,6.65
2019-04-26T14:45:28.559Z,6.33
2019-04-26T14:48:00.253Z,8.05
2019-04-26T14:53:43.009Z,9.35
2019-04-26T14:59:29.695Z,6.95
2019-04-26T15:05:16.661Z,7.47
2019-04-26T15:07:51.083Z,6.75
2019-04-26T15:13:21.204Z,7.83
2019-04-26T15:15:52.422Z,8.33
2019-04-26T15:18:22.388Z,7.08
2019-04-26T15:20:53.273Z,6.30
2019-04-26T15:23:23.876Z,7.95
2019-04-26T15:25:52.828Z,7.08
2019-04-26T15:28:22.123Z,7.67
2019-04-26T15:30:52.596Z,7.35
2019-04-26T15:33:22.020Z,6.83
2019-04-26T15:35:52.025Z,8.28
2019-04-26T15:38:22.089Z,6.95
2019-04-26T15:40:51.971Z,7.65
2019-04-26T15:43:20.014Z,8.20
2019-04-26T15:45:49.938Z,8.23
2019-04-26T15:48:23.074Z,7.70
2019-04-26T15:50:54.738Z,7.08
2019-04-26T15:53:23.920Z,6.85
2019-04-26T15:55:52.559Z,7.15
2019-04-26T15:58:20.934Z,7.65
2019-04-26T16:00:49.216Z,6.33
2019-04-26T16:03:18.849Z,7.53
2019-04-26T16:05:50.595Z,7.28
2019-04-26T16:08:18.869Z,7.47
2019-04-26T16:10:47.114Z,8.08
2019-04-26T16:13:18.719Z,7.72
2019-04-26T16:15:48.823Z,8.03
2019-04-26T16:18:17.363Z,7.17
2019-04-26T16:20:45.782Z,7.25
2019-04-26T16:23:14.111Z,7.70
2019-04-26T16:25:42.912Z,7.37
2019-04-26T16:28:12.972Z,6.40
2019-04-26T16:30:44.452Z,7.75
2019-04-26T16:33:14.377Z,7.15
2019-04-26T16:35:42.811Z,6.62
2019-04-26T16:38:18.808Z,7.67
2019-04-26T16:40:47.566Z,6.62
2019-04-26T16:46:29.054Z,7.60
2019-04-26T16:49:02.350Z,7.03
2019-04-26T16:54:34.326Z,7.97
2019-04-26T17:00:18.320Z,9.30
2019-04-26T17:06:06.747Z,11.25
2019-04-26T17:11:49.424Z,10.43
2019-04-26T17:17:34.315Z,8.65
2019-04-26T17:20:06.704Z,8.48
2019-04-26T17:25:38.074Z,10.65
2019-04-26T17:28:06.496Z,7.28
2019-04-26T17:30:41.085Z,9.25
2019-04-26T17:33:04.877Z,7.35
2019-04-26T17:35:36.623Z,6.75
2019-04-26T17:38:05.080Z,7.55
2019-04-26T17:43:55.967Z,6.70
2019-04-26T17:49:38.090Z,6.90
2019-04-26T17:52:05.299Z,7.67
2019-04-26T17:54:46.270Z,7.15
2019-04-26T17:57:04.207Z,5.95
2019-04-26T18:03:01.756Z,8.10
2019-04-26T18:08:54.567Z,5.92
2019-04-26T18:14:35.234Z,5.37
2019-04-26T18:20:09.426Z,5.35
2019-04-26T18:22:40.953Z,5.00
2019-04-26T18:28:25.453Z,6.72
2019-04-26T18:30:53.673Z,4.95
2019-04-26T18:33:25.871Z,5.40
2019-04-26T18:39:09.201Z,6.50
2019-04-26T18:41:39.109Z,5.92
2019-04-26T18:47:28.347Z,6.40
2019-04-26T18:53:13.938Z,6.70
2019-04-26T18:58:58.864Z,7.05
2019-04-26T19:04:47.934Z,6.78
2019-04-26T19:10:34.062Z,7.37
2019-04-26T19:13:03.214Z,8.75
2019-04-26T19:15:39.445Z,7.58
2019-04-26T19:18:05.499Z,6.37
2019-04-26T19:20:37.267Z,6.20
2019-04-26T19:23:09.943Z,7.47
2019-04-26T19:25:42.821Z,8.53
2019-04-26T19:31:19.203Z,7.60
2019-04-26T19:37:04.481Z,8.65
2019-04-26T19:42:51.423Z,9.53
2019-04-26T19:45:22.403Z,8.55
2019-04-26T19:47:52.440Z,8.95
2019-04-26T19:50:22.460Z,7.80
2019-04-26T19:52:52.389Z,8.25
2019-04-26T19:55:24.010Z,7.60
2019-04-26T19:57:53.874Z,8.43
2019-04-26T20:00:22.237Z,9.28
2019-04-26T20:02:51.942Z,10.18
2019-04-26T20:05:22.362Z,8.63
2019-04-26T20:07:51.844Z,9.65
2019-04-26T20:10:26.494Z,9.50
2019-04-26T20:12:55.011Z,8.05
2019-04-26T20:15:26.737Z,9.10
2019-04-26T20:21:12.587Z,8.50
2019-04-26T20:23:45.798Z,8.55
2019-04-26T20:26:09.098Z,7.90
2019-04-26T20:28:38.674Z,8.33
2019-04-26T20:34:14.380Z,7.95
2019-04-26T20:40:20.199Z,8.70
2019-04-26T20:46:12.468Z,9.05
2019-04-26T20:48:30.171Z,8.58
2019-04-26T20:54:02.431Z,9.60
2019-04-26T20:59:52.629Z,7.87
2019-04-26T21:05:22.963Z,9.80
2019-04-26T21:11:07.818Z,9.60
2019-04-26T21:16:51.993Z,12.45
2019-04-26T21:22:36.468Z,9.50
2019-04-26T21:25:07.529Z,12.88
2019-04-26T21:27:37.537Z,9.35
2019-04-26T21:33:23.968Z,11.50
2019-04-26T21:35:57.598Z,9.48
2019-04-26T21:38:29.548Z,9.83
2019-04-26T21:41:04.335Z,11.93
2019-04-26T21:43:29.481Z,10.00
2019-04-26T21:46:07.733Z,11.40
2019-04-26T21:48:27.929Z,10.72
2019-04-26T21:50:56.305Z,10.38
2019-04-26T21:53:25.038Z,9.80
2019-04-26T21:59:09.121Z,9.78
2019-04-26T22:04:53.231Z,9.20
2019-04-26T22:10:43.724Z,9.10
2019-04-26T22:16:34.215Z,8.00
2019-04-26T22:22:17.353Z,10.23
2019-04-26T22:24:47.321Z,9.60
2019-04-26T22:27:17.490Z,9.65
2019-04-26T22:33:03.054Z,10.50
2019-04-26T22:35:31.633Z,11.17
2019-04-26T22:37:59.934Z,8.93
2019-04-26T22:43:49.553Z,11.33
2019-04-26T22:46:18.709Z,9.45
2019-04-26T22:48:54.664Z,11.40
2019-04-26T22:51:19.410Z,10.00
2019-04-26T22:53:47.986Z,10.80
2019-04-26T22:59:33.796Z,12.00
2019-04-26T23:05:19.293Z,11.18
2019-04-26T23:07:47.598Z,8.00
2019-04-26T23:10:15.976Z,9.93
2019-04-26T23:12:45.924Z,9.78
2019-04-26T23:18:46.182Z,10.38
2019-04-26T23:24:30.305Z,13.88
2019-04-26T23:26:58.612Z,14.80
2019-04-26T23:32:43.471Z,14.20
2019-04-26T23:38:26.790Z,13.03
2019-04-26T23:44:23.765Z,11.93
2019-04-26T23:46:54.935Z,12.40
2019-04-26T23:52:38.416Z,15.28
2019-04-26T23:58:23.151Z,13.70
